createdAt,value
2022-07-26T00:00:09.277Z,98750.94
2022-07-26T00:02:38.076Z,98746.56
2022-07-26T00:05:07.297Z,98734.38
2022-07-26T00:07:36.675Z,98749.78
2022-07-26T00:10:06.627Z,98737.31
2022-07-26T00:12:35.207Z,98732.72
2022-07-26T00:15:03.378Z,98734.06
2022-07-26T00:17:33.199Z,98739.63
2022-07-26T00:28:21.056Z,98748.50
2022-07-26T00:30:51.954Z,98758.38
2022-07-26T00:33:21.592Z,98765.78
2022-07-26T00:35:51.416Z,98762.94
2022-07-26T00:38:19.636Z,98773.34
2022-07-26T00:40:47.884Z,98770.84
2022-07-26T00:43:16.047Z,98773.88
2022-07-26T00:45:44.481Z,98772.84
2022-07-26T00:48:12.747Z,98777.38
2022-07-26T00:50:42.380Z,98780.53
2022-07-26T00:53:10.936Z,98787.28
2022-07-26T00:55:39.299Z,98784.69
2022-07-26T00:58:07.609Z,98786.53
2022-07-26T01:00:35.909Z,98792.97
2022-07-26T01:03:04.423Z,98797.81
2022-07-26T01:05:34.109Z,98804.41
2022-07-26T01:08:03.854Z,98806.75
2022-07-26T01:10:32.203Z,98814.72
2022-07-26T01:13:01.113Z,98816.53
2022-07-26T01:15:29.423Z,98816.06
2022-07-26T01:17:57.835Z,98813.31
2022-07-26T01:20:26.079Z,98808.81
2022-07-26T01:22:55.796Z,98806.78
2022-07-26T01:25:31.377Z,98805.41
2022-07-26T01:27:59.705Z,98805.34
2022-07-26T01:30:28.211Z,98811.28
2022-07-26T01:32:57.936Z,98813.97
2022-07-26T01:35:27.014Z,98804.06
2022-07-26T01:37:58.959Z,98803.41
2022-07-26T01:40:27.053Z,98802.88
2022-07-26T01:42:55.382Z,98802.84
2022-07-26T01:45:25.167Z,98799.72
2022-07-26T01:47:53.438Z,98799.25
2022-07-26T01:50:22.568Z,98802.25
2022-07-26T01:52:50.669Z,98808.19
2022-07-26T01:55:20.612Z,98805.31
2022-07-26T01:57:48.967Z,98817.56
2022-07-26T02:00:17.887Z,98807.16
2022-07-26T02:02:46.396Z,98813.88
2022-07-26T02:05:15.102Z,98813.19
2022-07-26T02:07:44.557Z,98813.53
2022-07-26T02:10:14.607Z,98811.66
2022-07-26T02:12:44.721Z,98819.06
2022-07-26T02:15:14.655Z,98814.50
2022-07-26T02:17:43.056Z,98812.66
2022-07-26T02:20:11.723Z,98810.16
2022-07-26T02:22:40.107Z,98810.47
2022-07-26T02:25:09.005Z,98817.53
2022-07-26T02:27:37.932Z,98813.34
2022-07-26T02:30:08.566Z,98815.19
2022-07-26T02:32:36.923Z,98817.00
2022-07-26T02:35:05.701Z,98819.56
2022-07-26T02:37:37.584Z,98821.38
2022-07-26T02:40:18.674Z,98816.19
2022-07-26T02:42:47.260Z,98810.63
2022-07-26T02:45:17.077Z,98824.94
2022-07-26T02:47:50.233Z,98808.97
2022-07-26T02:50:20.637Z,98818.03
2022-07-26T02:52:49.424Z,98828.34
2022-07-26T02:55:18.581Z,98820.00
2022-07-26T02:57:47.212Z,98816.91
2022-07-26T03:00:19.402Z,98824.94
2022-07-26T03:02:49.380Z,98824.13
2022-07-26T03:05:18.719Z,98832.84
2022-07-26T03:07:47.436Z,98835.00
2022-07-26T03:10:16.374Z,98832.66
2022-07-26T03:12:44.690Z,98840.84
2022-07-26T03:15:13.488Z,98841.00
2022-07-26T03:17:43.923Z,98843.16
2022-07-26T03:20:14.047Z,98845.63
2022-07-26T03:22:42.412Z,98836.00
2022-07-26T03:25:10.833Z,98830.50
2022-07-26T03:27:39.588Z,98841.31
2022-07-26T03:30:09.626Z,98831.63
2022-07-26T03:32:37.818Z,98827.91
2022-07-26T03:35:10.312Z,98835.53
2022-07-26T03:37:44.197Z,98829.19
2022-07-26T03:40:15.519Z,98832.78
2022-07-26T03:42:43.694Z,98834.53
2022-07-26T03:45:12.757Z,98831.78
2022-07-26T03:47:40.913Z,98827.72
2022-07-26T03:50:13.966Z,98832.38
2022-07-26T03:52:42.597Z,98838.44
2022-07-26T03:55:28.843Z,98835.56
2022-07-26T03:57:57.134Z,98828.88
2022-07-26T04:00:25.431Z,98837.00
2022-07-26T04:02:53.577Z,98830.81
2022-07-26T04:05:26.003Z,98830.63
2022-07-26T04:07:54.701Z,98832.72
2022-07-26T04:10:27.899Z,98833.56
2022-07-26T04:12:56.164Z,98832.56
2022-07-26T04:15:24.473Z,98843.91
2022-07-26T04:17:52.668Z,98849.50
2022-07-26T04:20:22.424Z,98844.66
2022-07-26T04:22:50.757Z,98853.69
2022-07-26T04:25:19.045Z,98850.56
2022-07-26T04:27:47.219Z,98851.47
2022-07-26T04:30:15.877Z,98860.66
2022-07-26T04:32:46.684Z,98864.06
2022-07-26T04:35:15.883Z,98862.88
2022-07-26T04:37:46.251Z,98868.16
2022-07-26T04:40:21.362Z,98864.22
2022-07-26T04:42:50.633Z,98868.22
2022-07-26T04:45:19.170Z,98871.00
2022-07-26T04:47:50.571Z,98875.59
2022-07-26T04:50:19.901Z,98876.75
2022-07-26T04:52:50.018Z,98869.09
2022-07-26T04:55:19.084Z,98862.78
2022-07-26T04:57:48.460Z,98865.72
2022-07-26T05:00:23.027Z,98865.75
2022-07-26T05:02:53.318Z,98873.41
2022-07-26T05:05:22.552Z,98858.00
2022-07-26T05:07:55.919Z,98872.38
2022-07-26T05:10:30.211Z,98866.00
2022-07-26T05:12:58.390Z,98866.19
2022-07-26T05:15:32.994Z,98867.91
2022-07-26T05:18:06.681Z,98860.59
2022-07-26T05:20:36.179Z,98863.16
2022-07-26T05:23:06.630Z,98873.19
2022-07-26T05:25:34.869Z,98861.16
2022-07-26T05:28:03.327Z,98867.16
2022-07-26T05:30:31.705Z,98868.22
2022-07-26T05:33:00.123Z,98869.06
2022-07-26T05:35:28.711Z,98875.06
2022-07-26T05:37:57.160Z,98861.94
2022-07-26T05:40:28.013Z,98867.47
2022-07-26T05:42:56.122Z,98867.63
2022-07-26T05:45:24.328Z,98862.91
2022-07-26T05:47:52.840Z,98865.69
2022-07-26T05:50:21.668Z,98863.31
2022-07-26T05:52:50.013Z,98861.38
2022-07-26T05:55:18.111Z,98870.63
2022-07-26T05:57:49.665Z,98879.44
2022-07-26T06:00:18.684Z,98874.13
2022-07-26T06:02:46.991Z,98877.41
2022-07-26T06:05:16.073Z,98872.91
2022-07-26T06:07:44.590Z,98873.50
2022-07-26T06:10:12.690Z,98868.78
2022-07-26T06:12:40.955Z,98871.84
2022-07-26T06:15:14.998Z,98866.78
2022-07-26T06:17:43.907Z,98878.81
2022-07-26T06:20:13.100Z,98878.66
2022-07-26T06:22:41.393Z,98876.59
2022-07-26T06:25:10.302Z,98875.19
2022-07-26T06:27:38.637Z,98872.09
2022-07-26T06:30:12.070Z,98879.84
2022-07-26T06:32:44.361Z,98885.72
2022-07-26T06:35:14.692Z,98884.88
2022-07-26T06:37:44.700Z,98896.59
2022-07-26T06:40:13.648Z,98892.31
2022-07-26T06:42:41.967Z,98894.22
2022-07-26T06:45:12.789Z,98892.88
2022-07-26T06:47:41.179Z,98889.84
2022-07-26T06:50:10.665Z,98891.72
2022-07-26T06:52:38.782Z,98893.34
2022-07-26T06:55:09.472Z,98893.19
2022-07-26T06:57:44.926Z,98894.16
2022-07-26T07:00:20.715Z,98893.38
2022-07-26T07:02:48.965Z,98889.41
2022-07-26T07:05:17.198Z,98892.41
2022-07-26T07:07:45.805Z,98884.19
2022-07-26T07:10:14.707Z,98883.84
2022-07-26T07:12:45.008Z,98883.66
2022-07-26T07:15:14.373Z,98881.81
2022-07-26T07:17:44.229Z,98881.31
2022-07-26T07:20:13.779Z,98887.72
2022-07-26T07:22:41.969Z,98878.63
2022-07-26T07:25:10.616Z,98878.94
2022-07-26T07:27:43.077Z,98879.81
2022-07-26T07:30:12.408Z,98883.28
2022-07-26T07:32:41.052Z,98891.66
2022-07-26T07:35:12.671Z,98886.66
2022-07-26T07:37:53.831Z,98876.13
2022-07-26T07:40:23.166Z,98883.63
2022-07-26T07:42:51.512Z,98886.91
2022-07-26T07:45:20.272Z,98881.72
2022-07-26T07:47:48.623Z,98889.53
2022-07-26T07:50:18.285Z,98883.56
2022-07-26T07:52:46.443Z,98895.13
2022-07-26T07:55:36.968Z,98887.69
2022-07-26T07:58:04.394Z,98892.00
2022-07-26T08:00:35.820Z,98895.34
2022-07-26T08:03:05.447Z,98890.50
2022-07-26T08:05:36.154Z,98897.72
2022-07-26T08:08:08.905Z,98894.84
2022-07-26T08:10:41.764Z,98891.34
2022-07-26T08:13:21.221Z,98887.25
2022-07-26T08:15:50.153Z,98876.41
2022-07-26T08:18:18.533Z,98883.25
2022-07-26T08:20:53.800Z,98886.88
2022-07-26T08:23:22.129Z,98887.41
2022-07-26T08:25:56.635Z,98893.31
2022-07-26T08:28:47.017Z,98887.59
2022-07-26T08:31:17.150Z,98890.81
2022-07-26T08:33:46.233Z,98891.88
2022-07-26T08:36:17.173Z,98888.03
2022-07-26T08:38:47.773Z,98889.25
2022-07-26T08:41:18.051Z,98889.63
2022-07-26T08:43:53.259Z,98895.28
2022-07-26T08:46:28.214Z,98888.13
2022-07-26T08:48:57.179Z,98883.19
2022-07-26T08:51:28.040Z,98899.78
2022-07-26T08:54:04.708Z,98905.28
2022-07-26T08:56:33.754Z,98900.81
2022-07-26T08:59:08.005Z,98908.56
2022-07-26T09:01:36.825Z,98905.19
2022-07-26T09:04:31.824Z,98914.34
2022-07-26T09:07:04.816Z,98908.91
2022-07-26T09:09:34.199Z,98917.66
2022-07-26T09:12:16.242Z,98917.38
2022-07-26T09:14:46.823Z,98918.84
2022-07-26T09:17:15.922Z,98925.78
2022-07-26T09:19:44.340Z,98932.56
2022-07-26T09:22:17.081Z,98924.03
2022-07-26T09:24:47.085Z,98925.81
2022-07-26T09:27:17.297Z,98923.13
2022-07-26T09:29:49.230Z,98930.59
2022-07-26T09:32:19.517Z,98931.16
2022-07-26T09:34:53.158Z,98933.09
2022-07-26T09:37:36.210Z,98924.56
2022-07-26T09:40:08.719Z,98923.03
2022-07-26T09:42:37.068Z,98925.44
2022-07-26T09:45:17.079Z,98924.16
2022-07-26T09:47:45.225Z,98935.38
2022-07-26T09:50:16.288Z,98932.00
2022-07-26T09:53:02.462Z,98934.03
2022-07-26T09:55:42.548Z,98934.28
2022-07-26T09:58:16.431Z,98945.31
2022-07-26T10:00:45.485Z,98938.28
2022-07-26T10:03:14.122Z,98940.81
2022-07-26T10:05:43.875Z,98936.38
2022-07-26T10:08:14.102Z,98935.69
2022-07-26T10:10:47.173Z,98934.22
2022-07-26T10:13:15.710Z,98938.69
2022-07-26T10:15:46.692Z,98942.75
2022-07-26T10:18:46.080Z,98944.56
2022-07-26T10:21:25.659Z,98958.50
2022-07-26T10:23:58.163Z,98965.72
2022-07-26T10:26:43.192Z,98969.56
2022-07-26T10:29:29.903Z,98968.34
2022-07-26T10:32:18.150Z,98975.25
2022-07-26T10:34:46.573Z,98974.88
2022-07-26T10:37:27.809Z,98973.06
2022-07-26T10:40:22.728Z,98976.47
2022-07-26T10:42:51.042Z,98975.34
2022-07-26T10:45:22.505Z,98980.91
2022-07-26T10:48:13.903Z,98977.91
2022-07-26T10:50:43.317Z,98979.56
2022-07-26T10:53:13.723Z,98986.28
2022-07-26T10:55:52.290Z,98984.66
2022-07-26T10:58:21.425Z,98984.13
2022-07-26T11:00:58.070Z,98980.75
2022-07-26T11:03:29.515Z,98978.88
2022-07-26T11:05:57.751Z,98973.59
2022-07-26T11:08:31.897Z,98979.72
2022-07-26T11:11:02.472Z,98968.34
2022-07-26T11:13:33.533Z,98971.69
2022-07-26T11:16:03.798Z,98970.13
2022-07-26T11:18:35.543Z,98964.13
2022-07-26T11:21:15.615Z,98970.41
2022-07-26T11:23:45.233Z,98965.50
2022-07-26T11:26:18.246Z,98964.84
2022-07-26T11:29:00.755Z,98962.13
2022-07-26T11:31:50.582Z,98954.16
2022-07-26T11:34:30.180Z,98954.28
2022-07-26T11:37:00.179Z,98957.25
2022-07-26T11:39:32.205Z,98947.00
2022-07-26T11:42:03.914Z,98951.78
2022-07-26T11:44:32.641Z,98945.69
2022-07-26T11:47:01.048Z,98955.81
2022-07-26T11:50:00.170Z,98950.16
2022-07-26T11:52:30.455Z,98949.53
2022-07-26T11:54:59.310Z,98947.19
2022-07-26T11:57:33.008Z,98959.88
2022-07-26T12:00:01.941Z,98962.41
2022-07-26T12:02:31.840Z,98964.44
2022-07-26T12:05:18.817Z,98953.72
2022-07-26T12:07:59.246Z,98955.97
2022-07-26T12:10:27.835Z,98953.97
2022-07-26T12:13:14.993Z,98957.28
2022-07-26T12:15:53.826Z,98956.56
2022-07-26T12:18:26.170Z,98967.06
2022-07-26T12:21:05.474Z,98967.03
2022-07-26T12:23:48.812Z,98952.09
2022-07-26T12:26:24.874Z,98959.19
2022-07-26T12:28:55.448Z,98948.53
2022-07-26T12:31:25.360Z,98951.00
2022-07-26T12:33:54.068Z,98949.91
2022-07-26T12:36:28.365Z,98955.31
2022-07-26T12:39:00.178Z,98950.53
2022-07-26T12:41:33.248Z,98959.56
2022-07-26T12:44:03.122Z,98948.34
2022-07-26T12:46:33.863Z,98948.69
2022-07-26T12:49:03.492Z,98944.41
2022-07-26T12:51:32.262Z,98946.47
2022-07-26T12:54:00.579Z,98953.44
2022-07-26T12:56:28.822Z,98948.81
2022-07-26T12:59:01.532Z,98954.31
2022-07-26T13:01:33.576Z,98956.19
2022-07-26T13:04:02.546Z,98955.09
2022-07-26T13:06:34.025Z,98952.31
2022-07-26T13:09:02.298Z,98949.44
2022-07-26T13:11:30.727Z,98954.28
2022-07-26T13:13:59.212Z,98938.63
2022-07-26T13:16:27.597Z,98945.50
2022-07-26T13:18:57.179Z,98940.00
2022-07-26T13:21:25.359Z,98929.13
2022-07-26T13:24:03.224Z,98933.38
2022-07-26T13:26:34.906Z,98936.41
2022-07-26T13:29:05.438Z,98928.75
2022-07-26T13:31:33.876Z,98933.81
2022-07-26T13:34:03.483Z,98931.00
2022-07-26T13:36:31.684Z,98925.66
2022-07-26T13:38:59.956Z,98916.53
2022-07-26T13:41:28.957Z,98917.59
2022-07-26T13:43:59.751Z,98918.25
2022-07-26T13:46:33.423Z,98921.75
2022-07-26T13:49:04.902Z,98923.91
2022-07-26T13:51:53.452Z,98915.91
2022-07-26T13:54:23.281Z,98923.81
2022-07-26T13:56:51.715Z,98912.16
2022-07-26T13:59:21.772Z,98916.31
2022-07-26T14:01:50.341Z,98912.16
2022-07-26T14:04:20.349Z,98914.81
2022-07-26T14:06:49.192Z,98921.06
2022-07-26T14:09:21.419Z,98910.69
2022-07-26T14:11:50.154Z,98919.47
2022-07-26T14:14:18.728Z,98898.13
2022-07-26T14:16:48.060Z,98917.53
2022-07-26T14:19:19.371Z,98917.50
2022-07-26T14:21:59.162Z,98914.53
2022-07-26T14:24:28.262Z,98920.16
2022-07-26T14:26:59.436Z,98916.41
2022-07-26T14:29:28.630Z,98917.91
2022-07-26T14:31:57.539Z,98926.25
2022-07-26T14:34:27.620Z,98923.47
2022-07-26T14:36:56.133Z,98922.84
2022-07-26T14:39:24.526Z,98929.75
2022-07-26T14:41:52.903Z,98927.88
2022-07-26T14:44:21.081Z,98925.88
2022-07-26T14:46:49.491Z,98931.13
2022-07-26T14:49:17.690Z,98937.41
2022-07-26T14:51:48.021Z,98935.59
2022-07-26T14:54:17.784Z,98923.91
2022-07-26T14:56:46.370Z,98922.28
2022-07-26T14:59:14.919Z,98925.09
2022-07-26T15:01:43.401Z,98927.19
2022-07-26T15:04:12.410Z,98925.72
2022-07-26T15:06:40.759Z,98923.03
2022-07-26T15:09:10.708Z,98924.69
2022-07-26T15:11:38.883Z,98920.16
2022-07-26T15:14:07.270Z,98926.91
2022-07-26T15:16:35.645Z,98917.59
2022-07-26T15:19:04.021Z,98917.34
2022-07-26T15:21:32.340Z,98917.22
2022-07-26T15:24:00.565Z,98914.97
2022-07-26T15:26:30.344Z,98910.19
2022-07-26T15:28:58.637Z,98915.56
2022-07-26T15:31:36.677Z,98915.06
2022-07-26T15:34:07.770Z,98923.84
2022-07-26T15:36:36.341Z,98920.28
2022-07-26T15:39:16.185Z,98924.66
2022-07-26T15:41:49.721Z,98918.91
2022-07-26T15:44:19.353Z,98920.47
2022-07-26T15:46:50.142Z,98925.50
2022-07-26T15:49:19.296Z,98928.84
2022-07-26T15:51:50.019Z,98922.97
2022-07-26T15:54:20.660Z,98921.75
2022-07-26T15:56:50.877Z,98934.09
2022-07-26T15:59:19.135Z,98931.38
2022-07-26T16:01:47.369Z,98936.03
2022-07-26T16:04:16.419Z,98936.41
2022-07-26T16:06:44.602Z,98942.44
2022-07-26T16:09:17.076Z,98944.81
2022-07-26T16:11:46.675Z,98947.84
2022-07-26T16:14:16.887Z,98950.78
2022-07-26T16:16:45.214Z,98953.31
2022-07-26T16:19:14.128Z,98945.13
2022-07-26T16:21:42.627Z,98949.56
2022-07-26T16:24:12.309Z,98942.47
2022-07-26T16:26:41.021Z,98943.81
2022-07-26T16:29:09.511Z,98936.88
2022-07-26T16:31:41.782Z,98940.00
2022-07-26T16:34:10.369Z,98939.53
2022-07-26T16:36:38.932Z,98937.56
2022-07-26T16:39:07.521Z,98930.44
2022-07-26T16:41:36.502Z,98936.63
2022-07-26T16:44:04.957Z,98933.84
2022-07-26T16:46:34.044Z,98926.69
2022-07-26T16:49:06.095Z,98928.19
2022-07-26T16:51:34.418Z,98937.00
2022-07-26T16:54:03.102Z,98934.75
2022-07-26T16:56:31.437Z,98934.25
2022-07-26T16:58:59.602Z,98943.44
2022-07-26T17:01:27.848Z,98935.97
2022-07-26T17:03:56.109Z,98945.78
2022-07-26T17:06:26.093Z,98948.22
2022-07-26T17:08:55.172Z,98943.81
2022-07-26T17:11:23.420Z,98956.41
2022-07-26T17:13:53.612Z,98948.09
2022-07-26T17:16:24.619Z,98949.34
2022-07-26T17:18:53.312Z,98947.31
2022-07-26T17:21:21.706Z,98945.72
2022-07-26T17:23:52.239Z,98943.78
2022-07-26T17:26:21.327Z,98939.53
2022-07-26T17:28:49.829Z,98942.38
2022-07-26T17:31:17.970Z,98934.19
2022-07-26T17:33:46.419Z,98934.84
2022-07-26T17:36:23.231Z,98944.38
2022-07-26T17:38:53.440Z,98942.09
2022-07-26T17:41:23.656Z,98937.91
2022-07-26T17:44:00.568Z,98939.38
2022-07-26T17:46:28.826Z,98939.03
2022-07-26T17:48:58.464Z,98937.91
2022-07-26T17:51:26.677Z,98939.13
2022-07-26T17:53:56.502Z,98938.56
2022-07-26T17:56:24.800Z,98937.59
2022-07-26T17:58:53.136Z,98942.31
2022-07-26T18:01:21.446Z,98942.28
2022-07-26T18:03:50.203Z,98934.53
2022-07-26T18:06:18.969Z,98932.09
2022-07-26T18:08:47.369Z,98937.84
2022-07-26T18:11:17.056Z,98943.91
2022-07-26T18:13:45.300Z,98937.91
2022-07-26T18:16:14.480Z,98940.75
2022-07-26T18:18:43.591Z,98941.94
2022-07-26T18:21:11.873Z,98944.28
2022-07-26T18:23:49.718Z,98946.44
2022-07-26T18:26:29.963Z,98944.75
2022-07-26T18:28:59.639Z,98947.06
2022-07-26T18:31:30.168Z,98941.66
2022-07-26T18:34:00.797Z,98945.94
2022-07-26T18:36:32.592Z,98945.69
2022-07-26T18:39:01.068Z,98948.53
2022-07-26T18:41:31.621Z,98952.66
2022-07-26T18:44:02.412Z,98957.75
2022-07-26T18:46:30.908Z,98955.16
2022-07-26T18:48:59.695Z,98957.97
2022-07-26T18:51:28.176Z,98963.53
2022-07-26T18:53:56.853Z,98963.69
2022-07-26T18:56:24.905Z,98965.56
2022-07-26T18:58:58.489Z,98966.88
2022-07-26T19:01:26.913Z,98973.50
2022-07-26T19:03:55.266Z,98976.47
2022-07-26T19:06:25.009Z,98982.19
2022-07-26T19:08:53.790Z,98969.44
2022-07-26T19:11:22.197Z,98971.63
2022-07-26T19:13:50.915Z,98977.16
2022-07-26T19:16:22.483Z,98980.03
2022-07-26T19:18:55.384Z,98980.03
2022-07-26T19:21:25.688Z,98983.81
2022-07-26T19:23:54.136Z,98986.72
2022-07-26T19:26:23.978Z,98989.53
2022-07-26T19:28:52.852Z,98994.72
2022-07-26T19:31:23.085Z,98986.38
2022-07-26T19:33:51.863Z,98996.84
2022-07-26T19:36:25.843Z,98996.28
2022-07-26T19:38:55.906Z,99000.00
2022-07-26T19:41:24.708Z,99007.25
2022-07-26T19:43:53.322Z,99012.72
2022-07-26T19:46:23.318Z,99016.34
2022-07-26T19:48:51.815Z,99012.75
2022-07-26T19:51:20.274Z,99022.50
2022-07-26T19:53:48.411Z,99017.75
2022-07-26T19:56:16.879Z,99019.59
2022-07-26T19:58:46.284Z,99021.06
2022-07-26T20:01:14.778Z,99022.28
2022-07-26T20:03:44.599Z,99027.53
2022-07-26T20:06:12.812Z,99027.53
2022-07-26T20:08:41.369Z,99032.25
2022-07-26T20:11:10.003Z,99033.81
2022-07-26T20:13:38.420Z,99031.00
2022-07-26T20:16:07.891Z,99034.09
2022-07-26T20:18:36.042Z,99035.63
2022-07-26T20:21:05.827Z,99037.81
2022-07-26T20:23:34.072Z,99046.94
2022-07-26T20:26:02.693Z,99051.44
2022-07-26T20:28:31.787Z,99055.19
2022-07-26T20:30:59.974Z,99058.72
2022-07-26T20:33:28.116Z,99056.38
2022-07-26T20:35:56.544Z,99066.16
2022-07-26T20:38:26.510Z,99067.31
2022-07-26T20:40:54.802Z,99072.81
2022-07-26T20:43:22.866Z,99078.56
2022-07-26T20:45:51.343Z,99075.38
2022-07-26T20:48:20.633Z,99084.25
2022-07-26T20:50:48.803Z,99090.66
2022-07-26T20:53:17.017Z,99082.91
2022-07-26T20:55:46.737Z,99085.13
2022-07-26T20:58:16.251Z,99089.81
2022-07-26T21:00:44.863Z,99099.13
2022-07-26T21:03:13.998Z,99095.84
2022-07-26T21:05:42.387Z,99109.50
2022-07-26T21:08:10.589Z,99100.44
2022-07-26T21:10:39.193Z,99102.28
2022-07-26T21:13:08.773Z,99101.28
2022-07-26T21:15:36.968Z,99107.88
2022-07-26T21:18:05.446Z,99107.88
2022-07-26T21:20:33.805Z,99097.91
2022-07-26T21:23:16.045Z,99104.78
2022-07-26T21:25:44.737Z,99111.34
2022-07-26T21:28:14.624Z,99113.88
2022-07-26T21:30:45.186Z,99112.22
2022-07-26T21:33:13.739Z,99117.94
2022-07-26T21:35:42.484Z,99111.97
2022-07-26T21:38:11.920Z,99117.41
2022-07-26T21:40:40.465Z,99107.06
2022-07-26T21:43:08.589Z,99106.72
2022-07-26T21:45:38.615Z,99115.81
2022-07-26T21:48:07.300Z,99113.47
2022-07-26T21:50:35.467Z,99114.31
2022-07-26T21:53:03.844Z,99112.06
2022-07-26T21:55:32.060Z,99112.06
2022-07-26T21:58:00.505Z,99110.50
2022-07-26T22:00:28.912Z,99109.38
2022-07-26T22:02:58.797Z,99125.22
2022-07-26T22:05:43.331Z,99115.59
2022-07-26T22:08:13.995Z,99125.78
2022-07-26T22:10:45.245Z,99126.97
2022-07-26T22:13:14.254Z,99126.97
2022-07-26T22:15:42.889Z,99137.19
2022-07-26T22:18:13.814Z,99130.72
2022-07-26T22:20:43.077Z,99130.50
2022-07-26T22:23:13.746Z,99124.09
2022-07-26T22:25:42.138Z,99133.31
2022-07-26T22:28:11.898Z,99130.81
2022-07-26T22:30:40.611Z,99135.69
2022-07-26T22:33:11.807Z,99130.03
2022-07-26T22:35:42.828Z,99119.88
2022-07-26T22:38:12.657Z,99119.78
2022-07-26T22:40:42.373Z,99123.88
2022-07-26T22:43:11.377Z,99113.66
2022-07-26T22:45:40.074Z,99118.88
2022-07-26T22:48:09.630Z,99128.13
2022-07-26T22:50:37.889Z,99122.22
2022-07-26T22:53:07.524Z,99120.00
2022-07-26T22:55:36.042Z,99114.25
2022-07-26T22:58:04.181Z,99114.97
2022-07-26T23:00:32.700Z,99107.63
2022-07-26T23:03:00.795Z,99117.69
2022-07-26T23:05:36.019Z,99114.78
2022-07-26T23:11:04.542Z,99116.09
2022-07-26T23:13:32.673Z,99123.22
2022-07-26T23:16:01.869Z,99119.63
2022-07-26T23:18:30.289Z,99126.69
2022-07-26T23:20:58.720Z,99127.44
2022-07-26T23:23:29.791Z,99122.31
2022-07-26T23:25:59.486Z,99127.69
2022-07-26T23:28:37.491Z,99131.78
2022-07-26T23:31:08.448Z,99130.28
2022-07-26T23:33:51.358Z,99121.22
2022-07-26T23:36:25.876Z,99134.84
2022-07-26T23:38:56.176Z,99140.50
2022-07-26T23:41:25.689Z,99128.31
2022-07-26T23:43:54.662Z,99132.97
2022-07-26T23:46:23.585Z,99133.88
2022-07-26T23:48:52.014Z,99130.06
2022-07-26T23:51:21.124Z,99131.69
2022-07-26T23:53:50.875Z,99137.59
2022-07-26T23:56:20.864Z,99141.22
2022-07-26T23:58:49.095Z,99140.03
